sensor_id;sensor_type;location;lat;lon;timestamp;temperature;humidity
2300;DHT22;1158;48.750;9.078;2024-01-30T00:00:32;-0.60;99.90
2300;DHT22;1158;48.750;9.078;2024-01-30T00:02:59;-0.60;99.90
2300;DHT22;1158;48.750;9.078;2024-01-30T00:05:27;-0.60;99.90
2300;DHT22;1158;48.750;9.078;2024-01-30T00:07:54;-0.60;99.90
2300;DHT22;1158;48.750;9.078;2024-01-30T00:10:21;-0.60;99.90
2300;DHT22;1158;48.750;9.078;2024-01-30T00:12:47;-0.60;99.90
2300;DHT22;1158;48.750;9.078;2024-01-30T00:15:14;-0.60;99.90
2300;DHT22;1158;48.750;9.078;2024-01-30T00:17:41;-0.60;99.90
2300;DHT22;1158;48.750;9.078;2024-01-30T00:20:08;-0.60;99.90
2300;DHT22;1158;48.750;9.078;2024-01-30T00:22:36;-0.60;99.90
2300;DHT22;1158;48.750;9.078;2024-01-30T00:25:03;-0.60;99.90
2300;DHT22;1158;48.750;9.078;2024-01-30T00:27:30;-0.60;99.90
2300;DHT22;1158;48.750;9.078;2024-01-30T00:29:57;-0.60;99.90
2300;DHT22;1158;48.750;9.078;2024-01-30T00:32:24;-0.60;99.90
2300;DHT22;1158;48.750;9.078;2024-01-30T00:34:50;-0.60;99.90
2300;DHT22;1158;48.750;9.078;2024-01-30T00:37:17;-0.60;99.90
2300;DHT22;1158;48.750;9.078;2024-01-30T00:39:45;-0.50;99.90
2300;DHT22;1158;48.750;9.078;2024-01-30T00:42:12;-0.50;99.90
2300;DHT22;1158;48.750;9.078;2024-01-30T00:44:39;-0.50;99.90
2300;DHT22;1158;48.750;9.078;2024-01-30T00:47:05;-0.60;99.90
2300;DHT22;1158;48.750;9.078;2024-01-30T00:49:33;-0.50;99.90
2300;DHT22;1158;48.750;9.078;2024-01-30T00:52:00;-0.50;99.90
2300;DHT22;1158;48.750;9.078;2024-01-30T00:54:26;-0.50;99.90
2300;DHT22;1158;48.750;9.078;2024-01-30T00:56:54;-0.40;99.90
2300;DHT22;1158;48.750;9.078;2024-01-30T00:59:22;-0.40;99.90
2300;DHT22;1158;48.750;9.078;2024-01-30T01:01:49;-0.40;99.90
2300;DHT22;1158;48.750;9.078;2024-01-30T01:04:15;-0.40;99.90
2300;DHT22;1158;48.750;9.078;2024-01-30T01:06:43;-0.40;99.90
2300;DHT22;1158;48.750;9.078;2024-01-30T01:09:10;-0.30;99.90
2300;DHT22;1158;48.750;9.078;2024-01-30T01:11:37;-0.30;99.90
2300;DHT22;1158;48.750;9.078;2024-01-30T01:14:05;-0.40;99.90
2300;DHT22;1158;48.750;9.078;2024-01-30T01:16:33;-0.40;99.90
2300;DHT22;1158;48.750;9.078;2024-01-30T01:19:00;-0.50;99.90
2300;DHT22;1158;48.750;9.078;2024-01-30T01:21:26;-0.40;99.90
2300;DHT22;1158;48.750;9.078;2024-01-30T01:23:53;-0.50;99.90
2300;DHT22;1158;48.750;9.078;2024-01-30T01:26:20;-0.40;99.90
2300;DHT22;1158;48.750;9.078;2024-01-30T01:28:47;-0.40;99.90
2300;DHT22;1158;48.750;9.078;2024-01-30T01:31:15;-0.40;99.90
2300;DHT22;1158;48.750;9.078;2024-01-30T01:33:43;-0.50;99.90
2300;DHT22;1158;48.750;9.078;2024-01-30T01:36:09;-0.50;99.90
2300;DHT22;1158;48.750;9.078;2024-01-30T01:38:36;-0.50;99.90
2300;DHT22;1158;48.750;9.078;2024-01-30T01:41:03;-0.60;99.90
2300;DHT22;1158;48.750;9.078;2024-01-30T01:43:30;-0.50;99.90
2300;DHT22;1158;48.750;9.078;2024-01-30T01:45:57;-0.50;99.90
2300;DHT22;1158;48.750;9.078;2024-01-30T01:48:26;-0.60;99.90
2300;DHT22;1158;48.750;9.078;2024-01-30T01:50:53;-0.60;99.90
2300;DHT22;1158;48.750;9.078;2024-01-30T01:53:19;-0.60;99.90
2300;DHT22;1158;48.750;9.078;2024-01-30T01:55:47;-0.60;99.90
2300;DHT22;1158;48.750;9.078;2024-01-30T01:58:14;-0.60;99.90
2300;DHT22;1158;48.750;9.078;2024-01-30T02:00:42;-0.70;99.90
2300;DHT22;1158;48.750;9.078;2024-01-30T02:03:10;-0.60;99.90
2300;DHT22;1158;48.750;9.078;2024-01-30T02:05:39;-0.70;99.90
2300;DHT22;1158;48.750;9.078;2024-01-30T02:08:08;-0.70;99.90
2300;DHT22;1158;48.750;9.078;2024-01-30T02:10:35;-0.70;99.90
2300;DHT22;1158;48.750;9.078;2024-01-30T02:13:02;-0.80;99.90
2300;DHT22;1158;48.750;9.078;2024-01-30T02:15:30;-0.70;99.90
2300;DHT22;1158;48.750;9.078;2024-01-30T02:17:57;-0.70;99.90
2300;DHT22;1158;48.750;9.078;2024-01-30T02:20:24;-0.70;99.90
2300;DHT22;1158;48.750;9.078;2024-01-30T02:22:54;-0.80;99.90
2300;DHT22;1158;48.750;9.078;2024-01-30T02:25:30;-0.80;99.90
2300;DHT22;1158;48.750;9.078;2024-01-30T02:27:57;-0.80;99.90
2300;DHT22;1158;48.750;9.078;2024-01-30T02:30:24;-0.90;99.90
2300;DHT22;1158;48.750;9.078;2024-01-30T02:32:51;-0.90;99.90
2300;DHT22;1158;48.750;9.078;2024-01-30T02:35:17;-0.90;99.90
2300;DHT22;1158;48.750;9.078;2024-01-30T02:37:44;-1.00;99.90
2300;DHT22;1158;48.750;9.078;2024-01-30T02:40:12;-0.90;99.90
2300;DHT22;1158;48.750;9.078;2024-01-30T02:42:39;-0.90;99.90
2300;DHT22;1158;48.750;9.078;2024-01-30T02:45:08;-0.90;99.90
2300;DHT22;1158;48.750;9.078;2024-01-30T02:47:35;-0.90;99.90
2300;DHT22;1158;48.750;9.078;2024-01-30T02:50:02;-0.90;99.90
2300;DHT22;1158;48.750;9.078;2024-01-30T02:52:28;-1.00;99.90
2300;DHT22;1158;48.750;9.078;2024-01-30T02:54:55;-1.00;99.90
2300;DHT22;1158;48.750;9.078;2024-01-30T02:57:23;-1.00;99.90
2300;DHT22;1158;48.750;9.078;2024-01-30T02:59:50;-1.00;99.90
2300;DHT22;1158;48.750;9.078;2024-01-30T03:02:17;-1.10;99.90
2300;DHT22;1158;48.750;9.078;2024-01-30T03:04:43;-1.10;99.90
2300;DHT22;1158;48.750;9.078;2024-01-30T03:07:10;-1.10;99.90
2300;DHT22;1158;48.750;9.078;2024-01-30T03:09:37;-1.10;99.90
2300;DHT22;1158;48.750;9.078;2024-01-30T03:12:05;-1.10;99.90
2300;DHT22;1158;48.750;9.078;2024-01-30T03:14:33;-1.10;99.90
2300;DHT22;1158;48.750;9.078;2024-01-30T03:16:59;-1.10;99.90
2300;DHT22;1158;48.750;9.078;2024-01-30T03:19:26;-1.10;99.90
2300;DHT22;1158;48.750;9.078;2024-01-30T03:21:53;-1.20;99.90
2300;DHT22;1158;48.750;9.078;2024-01-30T03:24:20;-1.30;99.90
2300;DHT22;1158;48.750;9.078;2024-01-30T03:26:46;-1.20;99.90
2300;DHT22;1158;48.750;9.078;2024-01-30T03:29:13;-1.20;99.90
2300;DHT22;1158;48.750;9.078;2024-01-30T03:31:42;-1.30;99.90
2300;DHT22;1158;48.750;9.078;2024-01-30T03:34:09;-1.30;99.90
2300;DHT22;1158;48.750;9.078;2024-01-30T03:36:35;-1.30;99.90
2300;DHT22;1158;48.750;9.078;2024-01-30T03:39:02;-1.30;99.90
2300;DHT22;1158;48.750;9.078;2024-01-30T03:41:29;-1.30;99.90
2300;DHT22;1158;48.750;9.078;2024-01-30T03:43:56;-1.30;99.90
2300;DHT22;1158;48.750;9.078;2024-01-30T03:46:22;-1.30;99.90
2300;DHT22;1158;48.750;9.078;2024-01-30T03:48:51;-1.40;99.90
2300;DHT22;1158;48.750;9.078;2024-01-30T03:51:17;-1.30;99.90
2300;DHT22;1158;48.750;9.078;2024-01-30T03:53:45;-1.40;99.90
2300;DHT22;1158;48.750;9.078;2024-01-30T03:56:12;-1.40;99.90
2300;DHT22;1158;48.750;9.078;2024-01-30T03:58:39;-1.40;99.90
2300;DHT22;1158;48.750;9.078;2024-01-30T04:01:06;-1.50;99.90
2300;DHT22;1158;48.750;9.078;2024-01-30T04:03:33;-1.50;99.90
2300;DHT22;1158;48.750;9.078;2024-01-30T04:06:01;-1.50;99.90
2300;DHT22;1158;48.750;9.078;2024-01-30T04:08:28;-1.50;99.90
2300;DHT22;1158;48.750;9.078;2024-01-30T04:10:55;-1.50;99.90
2300;DHT22;1158;48.750;9.078;2024-01-30T04:13:21;-1.50;99.90
2300;DHT22;1158;48.750;9.078;2024-01-30T04:15:48;-1.50;99.90
2300;DHT22;1158;48.750;9.078;2024-01-30T04:18:15;-1.60;99.90
2300;DHT22;1158;48.750;9.078;2024-01-30T04:20:41;-1.60;99.90
2300;DHT22;1158;48.750;9.078;2024-01-30T04:23:09;-1.60;99.90
2300;DHT22;1158;48.750;9.078;2024-01-30T04:25:36;-1.60;99.90
2300;DHT22;1158;48.750;9.078;2024-01-30T04:28:03;-1.60;99.90
2300;DHT22;1158;48.750;9.078;2024-01-30T04:30:30;-1.60;99.90
2300;DHT22;1158;48.750;9.078;2024-01-30T04:32:57;-1.60;99.90
2300;DHT22;1158;48.750;9.078;2024-01-30T04:35:24;-1.60;99.90
2300;DHT22;1158;48.750;9.078;2024-01-30T04:37:52;-1.60;99.90
2300;DHT22;1158;48.750;9.078;2024-01-30T04:40:20;-1.60;99.90
2300;DHT22;1158;48.750;9.078;2024-01-30T04:42:47;-1.60;99.90
2300;DHT22;1158;48.750;9.078;2024-01-30T04:45:13;-1.60;99.90
2300;DHT22;1158;48.750;9.078;2024-01-30T04:47:40;-1.60;99.90
2300;DHT22;1158;48.750;9.078;2024-01-30T04:50:08;-1.60;99.90
2300;DHT22;1158;48.750;9.078;2024-01-30T04:52:35;-1.60;99.90
2300;DHT22;1158;48.750;9.078;2024-01-30T04:55:02;-1.60;99.90
2300;DHT22;1158;48.750;9.078;2024-01-30T04:57:30;-1.60;99.90
2300;DHT22;1158;48.750;9.078;2024-01-30T04:59:59;-1.60;99.90
2300;DHT22;1158;48.750;9.078;2024-01-30T05:02:26;-1.60;99.90
2300;DHT22;1158;48.750;9.078;2024-01-30T05:04:53;-1.60;99.90
2300;DHT22;1158;48.750;9.078;2024-01-30T05:07:20;-1.60;99.90
2300;DHT22;1158;48.750;9.078;2024-01-30T05:09:46;-1.60;99.90
2300;DHT22;1158;48.750;9.078;2024-01-30T05:12:13;-1.60;99.90
2300;DHT22;1158;48.750;9.078;2024-01-30T05:14:41;-1.60;99.90
2300;DHT22;1158;48.750;9.078;2024-01-30T05:17:08;-1.70;99.90
2300;DHT22;1158;48.750;9.078;2024-01-30T05:19:38;-1.70;99.90
2300;DHT22;1158;48.750;9.078;2024-01-30T05:22:04;-1.80;99.90
2300;DHT22;1158;48.750;9.078;2024-01-30T05:24:31;-1.80;99.90
2300;DHT22;1158;48.750;9.078;2024-01-30T05:26:58;-1.80;99.90
2300;DHT22;1158;48.750;9.078;2024-01-30T05:29:25;-1.80;99.90
2300;DHT22;1158;48.750;9.078;2024-01-30T05:31:53;-1.80;99.90
2300;DHT22;1158;48.750;9.078;2024-01-30T05:34:19;-1.80;99.90
2300;DHT22;1158;48.750;9.078;2024-01-30T05:36:46;-1.80;99.90
2300;DHT22;1158;48.750;9.078;2024-01-30T05:39:13;-1.80;99.90
2300;DHT22;1158;48.750;9.078;2024-01-30T05:41:40;-1.80;99.90
2300;DHT22;1158;48.750;9.078;2024-01-30T05:44:06;-1.80;99.90
2300;DHT22;1158;48.750;9.078;2024-01-30T05:46:33;-1.80;99.90
2300;DHT22;1158;48.750;9.078;2024-01-30T05:49:01;-1.80;99.90
2300;DHT22;1158;48.750;9.078;2024-01-30T05:51:28;-1.80;99.90
2300;DHT22;1158;48.750;9.078;2024-01-30T05:53:55;-1.80;99.90
2300;DHT22;1158;48.750;9.078;2024-01-30T05:56:22;-1.80;99.90
2300;DHT22;1158;48.750;9.078;2024-01-30T05:58:48;-1.80;99.90
2300;DHT22;1158;48.750;9.078;2024-01-30T06:01:16;-1.80;99.90
2300;DHT22;1158;48.750;9.078;2024-01-30T06:03:43;-1.80;99.90
2300;DHT22;1158;48.750;9.078;2024-01-30T06:06:11;-1.80;99.90
2300;DHT22;1158;48.750;9.078;2024-01-30T06:08:38;-1.80;99.90
2300;DHT22;1158;48.750;9.078;2024-01-30T06:11:04;-1.70;99.90
2300;DHT22;1158;48.750;9.078;2024-01-30T06:13:31;-1.70;99.90
2300;DHT22;1158;48.750;9.078;2024-01-30T06:15:58;-1.70;99.90
2300;DHT22;1158;48.750;9.078;2024-01-30T06:18:25;-1.60;99.90
2300;DHT22;1158;48.750;9.078;2024-01-30T06:20:52;-1.60;99.90
2300;DHT22;1158;48.750;9.078;2024-01-30T06:23:20;-1.60;99.90
2300;DHT22;1158;48.750;9.078;2024-01-30T06:25:47;-1.60;99.90
2300;DHT22;1158;48.750;9.078;2024-01-30T06:28:14;-1.70;99.90
2300;DHT22;1158;48.750;9.078;2024-01-30T06:30:41;-1.70;99.90
2300;DHT22;1158;48.750;9.078;2024-01-30T06:33:07;-1.70;99.90
2300;DHT22;1158;48.750;9.078;2024-01-30T06:35:34;-1.70;99.90
2300;DHT22;1158;48.750;9.078;2024-01-30T06:38:05;-1.70;99.90
2300;DHT22;1158;48.750;9.078;2024-01-30T06:40:33;-1.80;99.90
2300;DHT22;1158;48.750;9.078;2024-01-30T06:43:00;-1.80;99.90
2300;DHT22;1158;48.750;9.078;2024-01-30T06:45:26;-1.80;99.90
2300;DHT22;1158;48.750;9.078;2024-01-30T06:47:53;-1.80;99.90
2300;DHT22;1158;48.750;9.078;2024-01-30T06:50:20;-1.80;99.90
2300;DHT22;1158;48.750;9.078;2024-01-30T06:52:47;-1.80;99.90
2300;DHT22;1158;48.750;9.078;2024-01-30T06:55:13;-1.70;99.90
2300;DHT22;1158;48.750;9.078;2024-01-30T06:57:42;-1.70;99.90
2300;DHT22;1158;48.750;9.078;2024-01-30T07:00:09;-1.70;99.90
2300;DHT22;1158;48.750;9.078;2024-01-30T07:02:36;-1.60;99.90
2300;DHT22;1158;48.750;9.078;2024-01-30T07:05:03;-1.60;99.90
2300;DHT22;1158;48.750;9.078;2024-01-30T07:07:30;-1.60;99.90
2300;DHT22;1158;48.750;9.078;2024-01-30T07:09:56;-1.50;99.90
2300;DHT22;1158;48.750;9.078;2024-01-30T07:12:23;-1.50;99.90
2300;DHT22;1158;48.750;9.078;2024-01-30T07:14:53;-1.40;99.90
2300;DHT22;1158;48.750;9.078;2024-01-30T07:17:21;-1.20;99.90
2300;DHT22;1158;48.750;9.078;2024-01-30T07:19:48;-1.20;99.90
2300;DHT22;1158;48.750;9.078;2024-01-30T07:22:15;-1.00;99.90
2300;DHT22;1158;48.750;9.078;2024-01-30T07:24:42;-1.00;99.90
2300;DHT22;1158;48.750;9.078;2024-01-30T07:27:12;-0.90;99.90
2300;DHT22;1158;48.750;9.078;2024-01-30T07:29:39;-0.80;99.90
2300;DHT22;1158;48.750;9.078;2024-01-30T07:32:07;-0.60;99.90
2300;DHT22;1158;48.750;9.078;2024-01-30T07:34:34;-0.40;99.90
2300;DHT22;1158;48.750;9.078;2024-01-30T07:37:01;0.00;99.90
2300;DHT22;1158;48.750;9.078;2024-01-30T07:39:28;0.50;99.90
2300;DHT22;1158;48.750;9.078;2024-01-30T07:41:55;0.80;99.90
2300;DHT22;1158;48.750;9.078;2024-01-30T07:44:22;0.90;99.90
2300;DHT22;1158;48.750;9.078;2024-01-30T07:46:49;0.80;99.90
2300;DHT22;1158;48.750;9.078;2024-01-30T07:49:17;1.10;99.90
2300;DHT22;1158;48.750;9.078;2024-01-30T07:51:44;1.30;99.90
2300;DHT22;1158;48.750;9.078;2024-01-30T07:54:10;1.30;99.90
2300;DHT22;1158;48.750;9.078;2024-01-30T07:56:37;1.60;99.90
2300;DHT22;1158;48.750;9.078;2024-01-30T07:59:04;1.80;99.90
2300;DHT22;1158;48.750;9.078;2024-01-30T08:01:30;2.10;99.90
2300;DHT22;1158;48.750;9.078;2024-01-30T08:03:57;2.50;99.90
2300;DHT22;1158;48.750;9.078;2024-01-30T08:06:25;2.80;99.90
2300;DHT22;1158;48.750;9.078;2024-01-30T08:08:52;3.00;99.90
2300;DHT22;1158;48.750;9.078;2024-01-30T08:11:20;3.40;99.90
2300;DHT22;1158;48.750;9.078;2024-01-30T08:13:51;4.00;99.90
2300;DHT22;1158;48.750;9.078;2024-01-30T08:16:17;4.50;99.90
2300;DHT22;1158;48.750;9.078;2024-01-30T08:18:44;5.10;99.90
2300;DHT22;1158;48.750;9.078;2024-01-30T08:21:11;5.70;99.90
2300;DHT22;1158;48.750;9.078;2024-01-30T08:23:39;6.40;99.90
2300;DHT22;1158;48.750;9.078;2024-01-30T08:26:06;6.90;99.90
2300;DHT22;1158;48.750;9.078;2024-01-30T08:28:33;7.50;99.90
2300;DHT22;1158;48.750;9.078;2024-01-30T08:31:00;7.90;99.90
2300;DHT22;1158;48.750;9.078;2024-01-30T08:33:26;8.50;99.90
2300;DHT22;1158;48.750;9.078;2024-01-30T08:35:54;8.40;99.90
2300;DHT22;1158;48.750;9.078;2024-01-30T08:38:20;8.90;99.90
2300;DHT22;1158;48.750;9.078;2024-01-30T08:40:49;9.00;99.90
2300;DHT22;1158;48.750;9.078;2024-01-30T08:43:15;9.50;99.90
2300;DHT22;1158;48.750;9.078;2024-01-30T08:45:42;9.50;99.90
2300;DHT22;1158;48.750;9.078;2024-01-30T08:48:09;9.30;99.90
2300;DHT22;1158;48.750;9.078;2024-01-30T08:50:35;8.90;99.90
2300;DHT22;1158;48.750;9.078;2024-01-30T08:53:02;8.30;99.90
2300;DHT22;1158;48.750;9.078;2024-01-30T08:55:29;8.10;99.90
2300;DHT22;1158;48.750;9.078;2024-01-30T08:57:57;8.00;99.90
2300;DHT22;1158;48.750;9.078;2024-01-30T09:00:25;8.00;99.90
2300;DHT22;1158;48.750;9.078;2024-01-30T09:02:51;8.00;99.90
2300;DHT22;1158;48.750;9.078;2024-01-30T09:05:18;7.90;99.90
2300;DHT22;1158;48.750;9.078;2024-01-30T09:07:45;8.30;99.90
2300;DHT22;1158;48.750;9.078;2024-01-30T09:10:12;9.20;99.90
2300;DHT22;1158;48.750;9.078;2024-01-30T09:12:39;10.20;99.90
2300;DHT22;1158;48.750;9.078;2024-01-30T09:15:08;10.90;99.50
2300;DHT22;1158;48.750;9.078;2024-01-30T09:17:34;11.40;99.00
2300;DHT22;1158;48.750;9.078;2024-01-30T09:20:01;11.90;98.10
2300;DHT22;1158;48.750;9.078;2024-01-30T09:22:28;12.10;97.50
2300;DHT22;1158;48.750;9.078;2024-01-30T09:24:55;12.20;97.80
2300;DHT22;1158;48.750;9.078;2024-01-30T09:27:21;12.20;98.00
2300;DHT22;1158;48.750;9.078;2024-01-30T09:29:48;12.10;97.90
2300;DHT22;1158;48.750;9.078;2024-01-30T09:32:16;12.20;98.00
2300;DHT22;1158;48.750;9.078;2024-01-30T09:34:44;12.20;98.10
2300;DHT22;1158;48.750;9.078;2024-01-30T09:37:11;11.30;98.10
2300;DHT22;1158;48.750;9.078;2024-01-30T09:39:40;12.00;98.20
2300;DHT22;1158;48.750;9.078;2024-01-30T09:42:14;12.10;98.00
2300;DHT22;1158;48.750;9.078;2024-01-30T09:44:44;12.40;98.40
2300;DHT22;1158;48.750;9.078;2024-01-30T09:47:13;12.50;96.90
2300;DHT22;1158;48.750;9.078;2024-01-30T09:49:42;12.70;96.90
2300;DHT22;1158;48.750;9.078;2024-01-30T09:52:10;12.80;94.90
2300;DHT22;1158;48.750;9.078;2024-01-30T09:54:38;13.00;93.80
2300;DHT22;1158;48.750;9.078;2024-01-30T09:57:05;13.10;93.90
2300;DHT22;1158;48.750;9.078;2024-01-30T09:59:32;13.00;91.00
2300;DHT22;1158;48.750;9.078;2024-01-30T10:02:00;12.80;92.20
2300;DHT22;1158;48.750;9.078;2024-01-30T10:04:28;12.40;93.40
2300;DHT22;1158;48.750;9.078;2024-01-30T10:06:57;12.40;92.50
2300;DHT22;1158;48.750;9.078;2024-01-30T10:09:24;12.30;90.90
2300;DHT22;1158;48.750;9.078;2024-01-30T10:11:51;12.20;91.60
2300;DHT22;1158;48.750;9.078;2024-01-30T10:14:18;12.10;91.20
2300;DHT22;1158;48.750;9.078;2024-01-30T10:16:46;12.00;90.80
2300;DHT22;1158;48.750;9.078;2024-01-30T10:19:13;11.70;91.20
2300;DHT22;1158;48.750;9.078;2024-01-30T10:21:40;11.90;91.40
2300;DHT22;1158;48.750;9.078;2024-01-30T10:24:10;11.90;90.90
2300;DHT22;1158;48.750;9.078;2024-01-30T10:26:38;11.90;91.30
2300;DHT22;1158;48.750;9.078;2024-01-30T10:29:05;11.90;91.20
2300;DHT22;1158;48.750;9.078;2024-01-30T10:31:31;11.90;91.60
2300;DHT22;1158;48.750;9.078;2024-01-30T10:33:58;12.00;90.80
2300;DHT22;1158;48.750;9.078;2024-01-30T10:36:28;11.80;91.50
2300;DHT22;1158;48.750;9.078;2024-01-30T10:38:59;11.80;91.00
2300;DHT22;1158;48.750;9.078;2024-01-30T10:41:27;11.80;91.00
2300;DHT22;1158;48.750;9.078;2024-01-30T10:44:02;11.60;91.30
2300;DHT22;1158;48.750;9.078;2024-01-30T10:46:31;11.70;91.20
2300;DHT22;1158;48.750;9.078;2024-01-30T10:48:59;11.60;91.20
2300;DHT22;1158;48.750;9.078;2024-01-30T10:51:27;11.80;91.40
2300;DHT22;1158;48.750;9.078;2024-01-30T10:53:56;11.90;91.60
2300;DHT22;1158;48.750;9.078;2024-01-30T10:56:23;11.90;90.90
2300;DHT22;1158;48.750;9.078;2024-01-30T10:58:52;12.10;90.90
2300;DHT22;1158;48.750;9.078;2024-01-30T11:01:19;11.80;91.30
2300;DHT22;1158;48.750;9.078;2024-01-30T11:03:49;11.90;91.00
2300;DHT22;1158;48.750;9.078;2024-01-30T11:06:16;11.90;91.00
2300;DHT22;1158;48.750;9.078;2024-01-30T11:08:44;12.00;90.70
2300;DHT22;1158;48.750;9.078;2024-01-30T11:11:11;12.00;91.00
2300;DHT22;1158;48.750;9.078;2024-01-30T11:13:38;12.10;91.00
2300;DHT22;1158;48.750;9.078;2024-01-30T11:16:06;12.10;90.90
2300;DHT22;1158;48.750;9.078;2024-01-30T11:18:35;12.10;90.70
2300;DHT22;1158;48.750;9.078;2024-01-30T11:21:04;12.00;90.90
2300;DHT22;1158;48.750;9.078;2024-01-30T11:23:33;12.10;90.70
2300;DHT22;1158;48.750;9.078;2024-01-30T11:26:00;12.20;90.90
2300;DHT22;1158;48.750;9.078;2024-01-30T11:28:32;12.20;90.80
2300;DHT22;1158;48.750;9.078;2024-01-30T11:31:03;12.10;90.90
2300;DHT22;1158;48.750;9.078;2024-01-30T11:33:31;12.30;90.90
2300;DHT22;1158;48.750;9.078;2024-01-30T11:36:00;12.30;90.70
2300;DHT22;1158;48.750;9.078;2024-01-30T11:38:27;12.30;90.60
2300;DHT22;1158;48.750;9.078;2024-01-30T11:40:55;12.20;90.90
2300;DHT22;1158;48.750;9.078;2024-01-30T11:43:22;12.30;91.20
2300;DHT22;1158;48.750;9.078;2024-01-30T11:45:49;12.40;90.90
2300;DHT22;1158;48.750;9.078;2024-01-30T11:48:16;12.50;90.70
2300;DHT22;1158;48.750;9.078;2024-01-30T11:50:44;12.60;90.60
2300;DHT22;1158;48.750;9.078;2024-01-30T11:53:11;12.60;90.40
2300;DHT22;1158;48.750;9.078;2024-01-30T11:55:38;12.60;90.30
2300;DHT22;1158;48.750;9.078;2024-01-30T11:58:05;12.50;90.70
2300;DHT22;1158;48.750;9.078;2024-01-30T12:00:32;12.60;90.40
2300;DHT22;1158;48.750;9.078;2024-01-30T12:02:59;12.60;90.60
2300;DHT22;1158;48.750;9.078;2024-01-30T12:05:26;12.70;90.90
2300;DHT22;1158;48.750;9.078;2024-01-30T12:07:54;12.70;90.40
2300;DHT22;1158;48.750;9.078;2024-01-30T12:10:24;12.90;90.70
2300;DHT22;1158;48.750;9.078;2024-01-30T12:12:51;13.00;91.10
2300;DHT22;1158;48.750;9.078;2024-01-30T12:15:21;12.90;90.40
2300;DHT22;1158;48.750;9.078;2024-01-30T12:17:48;12.90;90.40
2300;DHT22;1158;48.750;9.078;2024-01-30T12:20:17;13.20;90.30
2300;DHT22;1158;48.750;9.078;2024-01-30T12:22:45;13.20;90.00
2300;DHT22;1158;48.750;9.078;2024-01-30T12:25:14;13.30;90.50
2300;DHT22;1158;48.750;9.078;2024-01-30T12:27:43;13.30;89.90
2300;DHT22;1158;48.750;9.078;2024-01-30T12:30:12;13.30;90.40
2300;DHT22;1158;48.750;9.078;2024-01-30T12:32:40;13.30;89.60
2300;DHT22;1158;48.750;9.078;2024-01-30T12:35:08;13.30;89.20
2300;DHT22;1158;48.750;9.078;2024-01-30T12:37:36;13.60;90.00
2300;DHT22;1158;48.750;9.078;2024-01-30T12:40:03;13.90;87.80
2300;DHT22;1158;48.750;9.078;2024-01-30T12:42:33;14.00;88.10
2300;DHT22;1158;48.750;9.078;2024-01-30T12:45:00;14.20;88.10
2300;DHT22;1158;48.750;9.078;2024-01-30T12:47:28;14.30;88.10
2300;DHT22;1158;48.750;9.078;2024-01-30T12:49:55;14.40;87.20
2300;DHT22;1158;48.750;9.078;2024-01-30T12:52:22;14.20;88.00
2300;DHT22;1158;48.750;9.078;2024-01-30T12:54:49;14.10;88.40
2300;DHT22;1158;48.750;9.078;2024-01-30T12:57:16;14.10;86.50
2300;DHT22;1158;48.750;9.078;2024-01-30T12:59:45;14.20;87.40
2300;DHT22;1158;48.750;9.078;2024-01-30T13:02:12;14.40;86.90
2300;DHT22;1158;48.750;9.078;2024-01-30T13:04:39;14.70;87.50
2300;DHT22;1158;48.750;9.078;2024-01-30T13:07:06;15.20;86.70
2300;DHT22;1158;48.750;9.078;2024-01-30T13:09:34;15.50;85.00
2300;DHT22;1158;48.750;9.078;2024-01-30T13:12:02;15.70;85.10
2300;DHT22;1158;48.750;9.078;2024-01-30T13:14:28;16.10;83.90
2300;DHT22;1158;48.750;9.078;2024-01-30T13:16:56;16.30;85.60
2300;DHT22;1158;48.750;9.078;2024-01-30T13:19:23;16.30;85.00
2300;DHT22;1158;48.750;9.078;2024-01-30T13:21:50;16.60;82.80
2300;DHT22;1158;48.750;9.078;2024-01-30T13:24:17;16.70;85.50
2300;DHT22;1158;48.750;9.078;2024-01-30T13:26:46;16.60;83.20
2300;DHT22;1158;48.750;9.078;2024-01-30T13:29:13;16.40;81.30
2300;DHT22;1158;48.750;9.078;2024-01-30T13:31:40;16.00;82.30
2300;DHT22;1158;48.750;9.078;2024-01-30T13:34:08;15.80;82.80
2300;DHT22;1158;48.750;9.078;2024-01-30T13:36:35;15.80;83.60
2300;DHT22;1158;48.750;9.078;2024-01-30T13:39:02;15.90;83.20
2300;DHT22;1158;48.750;9.078;2024-01-30T13:41:30;15.90;84.20
2300;DHT22;1158;48.750;9.078;2024-01-30T13:43:57;15.70;82.40
2300;DHT22;1158;48.750;9.078;2024-01-30T13:46:24;15.70;83.50
2300;DHT22;1158;48.750;9.078;2024-01-30T13:48:51;15.70;82.50
2300;DHT22;1158;48.750;9.078;2024-01-30T13:51:20;15.70;83.70
2300;DHT22;1158;48.750;9.078;2024-01-30T13:53:47;15.50;83.90
2300;DHT22;1158;48.750;9.078;2024-01-30T13:56:15;15.40;83.50
2300;DHT22;1158;48.750;9.078;2024-01-30T13:58:42;15.30;83.40
2300;DHT22;1158;48.750;9.078;2024-01-30T14:01:09;15.40;84.10
2300;DHT22;1158;48.750;9.078;2024-01-30T14:03:36;15.30;83.70
2300;DHT22;1158;48.750;9.078;2024-01-30T14:06:03;15.30;83.40
2300;DHT22;1158;48.750;9.078;2024-01-30T14:08:31;15.30;84.10
2300;DHT22;1158;48.750;9.078;2024-01-30T14:10:58;14.90;84.80
2300;DHT22;1158;48.750;9.078;2024-01-30T14:13:25;14.80;84.90
2300;DHT22;1158;48.750;9.078;2024-01-30T14:15:52;14.70;85.70
2300;DHT22;1158;48.750;9.078;2024-01-30T14:18:19;14.80;84.80
2300;DHT22;1158;48.750;9.078;2024-01-30T14:20:45;14.90;85.10
2300;DHT22;1158;48.750;9.078;2024-01-30T14:23:12;14.90;84.70
2300;DHT22;1158;48.750;9.078;2024-01-30T14:25:40;15.10;85.10
2300;DHT22;1158;48.750;9.078;2024-01-30T14:28:07;14.80;84.60
2300;DHT22;1158;48.750;9.078;2024-01-30T14:30:34;14.60;85.00
2300;DHT22;1158;48.750;9.078;2024-01-30T14:33:01;14.60;85.60
2300;DHT22;1158;48.750;9.078;2024-01-30T14:35:28;14.60;85.40
2300;DHT22;1158;48.750;9.078;2024-01-30T14:37:54;14.40;85.60
2300;DHT22;1158;48.750;9.078;2024-01-30T14:40:22;14.40;85.50
2300;DHT22;1158;48.750;9.078;2024-01-30T14:42:50;14.30;86.20
2300;DHT22;1158;48.750;9.078;2024-01-30T14:45:17;14.30;86.80
2300;DHT22;1158;48.750;9.078;2024-01-30T14:47:44;14.30;86.40
2300;DHT22;1158;48.750;9.078;2024-01-30T14:50:11;14.20;87.30
2300;DHT22;1158;48.750;9.078;2024-01-30T14:52:38;14.10;86.30
2300;DHT22;1158;48.750;9.078;2024-01-30T14:55:06;14.00;87.10
2300;DHT22;1158;48.750;9.078;2024-01-30T14:57:33;13.80;88.30
2300;DHT22;1158;48.750;9.078;2024-01-30T15:00:03;13.80;87.40
2300;DHT22;1158;48.750;9.078;2024-01-30T15:02:30;13.50;87.70
2300;DHT22;1158;48.750;9.078;2024-01-30T15:04:56;13.40;88.90
2300;DHT22;1158;48.750;9.078;2024-01-30T15:07:23;13.30;88.90
2300;DHT22;1158;48.750;9.078;2024-01-30T15:09:50;13.20;89.10
2300;DHT22;1158;48.750;9.078;2024-01-30T15:12:17;13.00;90.20
2300;DHT22;1158;48.750;9.078;2024-01-30T15:14:43;13.00;90.00
2300;DHT22;1158;48.750;9.078;2024-01-30T15:17:17;12.90;90.80
2300;DHT22;1158;48.750;9.078;2024-01-30T15:19:44;12.90;90.50
2300;DHT22;1158;48.750;9.078;2024-01-30T15:22:11;12.70;91.70
2300;DHT22;1158;48.750;9.078;2024-01-30T15:24:38;12.60;90.90
2300;DHT22;1158;48.750;9.078;2024-01-30T15:27:04;12.30;91.80
2300;DHT22;1158;48.750;9.078;2024-01-30T15:29:31;12.20;92.40
2300;DHT22;1158;48.750;9.078;2024-01-30T15:31:58;12.10;92.80
2300;DHT22;1158;48.750;9.078;2024-01-30T15:34:26;12.00;93.60
2300;DHT22;1158;48.750;9.078;2024-01-30T15:36:53;11.80;93.80
2300;DHT22;1158;48.750;9.078;2024-01-30T15:39:19;11.70;94.30
2300;DHT22;1158;48.750;9.078;2024-01-30T15:41:46;11.50;94.80
2300;DHT22;1158;48.750;9.078;2024-01-30T15:44:13;11.40;95.60
2300;DHT22;1158;48.750;9.078;2024-01-30T15:46:40;11.30;96.30
2300;DHT22;1158;48.750;9.078;2024-01-30T15:49:06;11.10;96.60
2300;DHT22;1158;48.750;9.078;2024-01-30T15:51:35;10.90;97.00
2300;DHT22;1158;48.750;9.078;2024-01-30T15:54:01;10.70;97.20
2300;DHT22;1158;48.750;9.078;2024-01-30T15:56:28;10.60;97.40
2300;DHT22;1158;48.750;9.078;2024-01-30T15:58:55;10.50;97.50
2300;DHT22;1158;48.750;9.078;2024-01-30T16:01:22;10.40;97.50